Linden Pride — H3VP — position and weather

sailwx.info

Track history (hours):
 
Tides and Currents Weather Stations Pressure Air Temp Water Temp Dewpoint Dewpoint Depression Visibility Wind Speed Wind Dir Waves Ship Positions

Linden Pride

Last reported at 2016-Jul-25 11:29 UTC. Time now 2016-Jul-27 17:20 UTC.
Position N 34°38' E 139°26'.

Length 230 m; beam 36.6 m.

Type: Ship. MMSI: 356677000.

Date/timePositionNaut miles runAvg speedWind from/ knotsBaromVisibWave heightAir tempDewpointWater temp
2016-Jul-25 11:29N 34°38' E 139°26'2713.7
2016-Jul-25 09:30N 35°02' E 139°41'1213.0
2016-Jul-25 08:33N 35°13' E 139°46'1111.3
2016-Jul-25 07:33N 35°24' E 139°43'1312.5
2016-Jul-25 06:33N 35°31' E 139°56'5 3.8
2016-Jul-25 05:22N 35°29' E 140°01'0 0.0
2016-Jul-25 04:28N 35°29' E 140°01'0 0.0
2016-Jul-25 03:28N 35°29' E 140°01'0 0.0
2016-Jul-25 02:28N 35°29' E 140°01'0 0.0
2016-Jul-25 01:22N 35°29' E 140°01'0 0.0
2016-Jul-25 00:28N 35°29' E 140°01'0 0.0
2016-Jul-24 23:22N 35°29' E 140°01'0 0.0
2016-Jul-24 22:28N 35°29' E 140°01'0 0.0
2016-Jul-24 21:28N 35°29' E 140°01'0 0.0
2016-Jul-24 20:28N 35°29' E 140°01'0 0.0
2016-Jul-24 19:22N 35°29' E 140°01'0 0.0
2016-Jul-24 18:28N 35°29' E 140°01'0 0.0
2016-Jul-24 17:28N 35°29' E 140°01'0 0.0
2016-Jul-24 16:28N 35°29' E 140°01'0 0.0
2016-Jul-24 15:28N 35°29' E 140°01'0 0.0
2016-Jul-24 14:28N 35°29' E 140°01'0 0.0
2016-Jul-24 13:28N 35°29' E 140°01'0 0.0
2016-Jul-24 12:28N 35°29' E 140°01'0 0.0
2016-Jul-24 11:22N 35°29' E 140°01'0 0.0
2016-Jul-24 10:28N 35°29' E 140°01'0 0.0
2016-Jul-24 09:28N 35°29' E 140°01'0 0.0
2016-Jul-24 08:22N 35°29' E 140°01'0 0.0
2016-Jul-24 07:28N 35°29' E 140°01'0 0.0
2016-Jul-24 06:28N 35°29' E 140°01'0 0.0
2016-Jul-24 05:28N 35°29' E 140°01'0 0.0
2016-Jul-24 04:28N 35°29' E 140°01'0 0.0
2016-Jul-24 03:28N 35°29' E 140°01'0 0.0
2016-Jul-24 02:10N 35°29' E 140°01'0 0.0
2016-Jul-24 01:28N 35°29' E 140°01'0 0.1
2016-Jul-24 00:33N 35°29' E 140°01'5 4.8
2016-Jul-23 23:33N 35°29' E 139°55'1111.1
2016-Jul-23 22:33N 35°22' E 139°45'1211.7
2016-Jul-23 21:33N 35°10' E 139°47'5 5.2
2016-Jul-23 20:33N 35°05' E 139°45'8 7.0
2016-Jul-23 19:25N 34°58' E 139°41'8 9.0
2016-Jul-23 18:34N 34°50' E 139°42'1110.4
2016-Jul-23 17:28N 34°39' E 139°38'1213.1
2016-Jul-23 16:33N 34°28' E 139°33'  
Track history (hours):
 
Tides and Currents Weather Stations Pressure Air Temp Water Temp Dewpoint Dewpoint Depression Visibility Wind Speed Wind Dir Waves Ship Positions

Linden Pride

Last reported at 2016-Jul-25 11:29 UTC. Time now 2016-Jul-27 17:20 UTC.
Position N 34°38' E 139°26'.

Length 230 m; beam 36.6 m.

Type: Ship. MMSI: 356677000.

Date/timePositionNaut miles runAvg speedWind from/ knotsBaromVisibWave heightAir tempDewpointWater temp
2016-Jul-25 11:29N 34°38' E 139°26'2713.7
2016-Jul-25 09:30N 35°02' E 139°41'1213.0
2016-Jul-25 08:33N 35°13' E 139°46'1111.3
2016-Jul-25 07:33N 35°24' E 139°43'1312.5
2016-Jul-25 06:33N 35°31' E 139°56'5 3.8
2016-Jul-25 05:22N 35°29' E 140°01'0 0.0
2016-Jul-25 04:28N 35°29' E 140°01'0 0.0
2016-Jul-25 03:28N 35°29' E 140°01'0 0.0
2016-Jul-25 02:28N 35°29' E 140°01'0 0.0
2016-Jul-25 01:22N 35°29' E 140°01'0 0.0
2016-Jul-25 00:28N 35°29' E 140°01'0 0.0
2016-Jul-24 23:22N 35°29' E 140°01'0 0.0
2016-Jul-24 22:28N 35°29' E 140°01'0 0.0
2016-Jul-24 21:28N 35°29' E 140°01'0 0.0
2016-Jul-24 20:28N 35°29' E 140°01'0 0.0
2016-Jul-24 19:22N 35°29' E 140°01'0 0.0
2016-Jul-24 18:28N 35°29' E 140°01'0 0.0
2016-Jul-24 17:28N 35°29' E 140°01'0 0.0
2016-Jul-24 16:28N 35°29' E 140°01'0 0.0
2016-Jul-24 15:28N 35°29' E 140°01'0 0.0
2016-Jul-24 14:28N 35°29' E 140°01'0 0.0
2016-Jul-24 13:28N 35°29' E 140°01'0 0.0
2016-Jul-24 12:28N 35°29' E 140°01'0 0.0
2016-Jul-24 11:22N 35°29' E 140°01'0 0.0
2016-Jul-24 10:28N 35°29' E 140°01'0 0.0
2016-Jul-24 09:28N 35°29' E 140°01'0 0.0
2016-Jul-24 08:22N 35°29' E 140°01'0 0.0
2016-Jul-24 07:28N 35°29' E 140°01'0 0.0
2016-Jul-24 06:28N 35°29' E 140°01'0 0.0
2016-Jul-24 05:28N 35°29' E 140°01'0 0.0
2016-Jul-24 04:28N 35°29' E 140°01'0 0.0
2016-Jul-24 03:28N 35°29' E 140°01'0 0.0
2016-Jul-24 02:10N 35°29' E 140°01'0 0.0
2016-Jul-24 01:28N 35°29' E 140°01'0 0.1
2016-Jul-24 00:33N 35°29' E 140°01'5 4.8
2016-Jul-23 23:33N 35°29' E 139°55'1111.1
2016-Jul-23 22:33N 35°22' E 139°45'1211.7
2016-Jul-23 21:33N 35°10' E 139°47'5 5.2
2016-Jul-23 20:33N 35°05' E 139°45'8 7.0
2016-Jul-23 19:25N 34°58' E 139°41'8 9.0
2016-Jul-23 18:34N 34°50' E 139°42'1110.4
2016-Jul-23 17:28N 34°39' E 139°38'1213.1
2016-Jul-23 16:33N 34°28' E 139°33'  

Dump ship's entire track history